createdAt,value
2022-12-01T09:19:16.857Z,-0.25
2022-12-01T09:27:43.806Z,-0.22
2022-12-01T09:36:08.269Z,-0.22
2022-12-01T09:44:52.873Z,-0.24
2022-12-01T09:53:20.035Z,-0.27
2022-12-01T10:01:45.248Z,-0.29
2022-12-01T10:10:14.655Z,-0.27
2022-12-01T10:19:05.312Z,-0.22
2022-12-01T10:27:55.084Z,-0.24
2022-12-01T10:36:16.597Z,-0.26
2022-12-01T10:44:39.571Z,-0.28
2022-12-01T10:53:02.016Z,-0.26
2022-12-01T11:01:30.418Z,-0.32
2022-12-01T11:10:13.700Z,-0.32
2022-12-01T11:18:38.146Z,-0.36
2022-12-01T11:27:00.283Z,-0.40
2022-12-01T11:35:25.638Z,-0.43
2022-12-01T11:43:56.697Z,-0.49
2022-12-01T11:52:30.540Z,-0.64
2022-12-01T12:00:56.919Z,-0.79
2022-12-01T12:09:46.058Z,-0.90
2022-12-01T12:18:23.061Z,-0.97
2022-12-01T12:26:54.003Z,-1.03
2022-12-01T12:35:42.879Z,-1.08
2022-12-01T12:44:35.346Z,-1.13
2022-12-01T12:53:09.251Z,-1.14
2022-12-01T13:01:39.062Z,-1.16
2022-12-01T13:10:15.896Z,-1.21
2022-12-01T13:18:44.528Z,-1.27
2022-12-01T13:27:16.354Z,-1.28
2022-12-01T13:35:39.383Z,-1.30
2022-12-01T13:44:03.137Z,-1.32
2022-12-01T13:52:31.269Z,-1.32
2022-12-01T14:00:52.962Z,-1.34
2022-12-01T14:09:44.436Z,-1.27
2022-12-01T14:18:18.077Z,-1.25
2022-12-01T14:26:45.186Z,-1.28
2022-12-01T14:35:13.281Z,-1.27
2022-12-01T14:43:54.327Z,-1.32
2022-12-01T14:53:08.490Z,-1.37
2022-12-01T15:01:33.742Z,-1.49
2022-12-01T15:10:01.132Z,-1.60
2022-12-01T15:18:30.613Z,-1.69
2022-12-01T15:26:59.096Z,-1.78
2022-12-01T15:35:23.881Z,-1.80
2022-12-01T15:43:58.453Z,-1.83
2022-12-01T15:52:21.405Z,-1.91
2022-12-01T16:01:08.052Z,-1.95
2022-12-01T16:09:53.757Z,-2.02
2022-12-01T16:18:31.054Z,-2.02
2022-12-01T16:26:54.059Z,-2.06
2022-12-01T16:35:25.924Z,-2.10
2022-12-01T16:44:12.614Z,-2.11
2022-12-01T16:52:46.322Z,-2.16
2022-12-01T17:01:07.896Z,-2.19
2022-12-01T17:09:29.612Z,-2.25
2022-12-01T17:17:51.198Z,-2.34
2022-12-01T17:26:16.729Z,-2.41
2022-12-01T17:34:38.251Z,-2.46
2022-12-01T17:42:59.763Z,-2.50
2022-12-01T17:51:21.626Z,-2.52
2022-12-01T17:59:43.326Z,-2.57
2022-12-01T18:08:05.094Z,-2.61
2022-12-01T18:16:30.000Z,-2.69
2022-12-01T18:24:52.249Z,-2.73
2022-12-01T18:33:14.302Z,-2.72
2022-12-01T18:41:36.388Z,-2.71
2022-12-01T18:49:57.991Z,-2.69
2022-12-01T18:58:19.453Z,-2.74
2022-12-01T19:06:42.437Z,-2.83
2022-12-01T19:15:04.412Z,-2.87
2022-12-01T19:23:26.059Z,-2.86
2022-12-01T19:31:47.657Z,-2.90
2022-12-01T19:40:09.621Z,-2.96
2022-12-01T19:48:31.143Z,-2.99
2022-12-01T19:56:52.569Z,-2.94
2022-12-01T20:05:14.952Z,-2.86
2022-12-01T20:13:39.319Z,-2.86
2022-12-01T20:22:00.808Z,-2.80
2022-12-01T20:30:22.278Z,-2.75
2022-12-01T20:38:44.006Z,-2.74
2022-12-01T20:47:05.800Z,-2.68
2022-12-01T20:55:27.250Z,-2.59
2022-12-01T21:03:50.352Z,-2.61
2022-12-01T21:12:35.175Z,-2.64
2022-12-01T21:21:03.983Z,-2.59
2022-12-01T21:29:38.645Z,-2.61
2022-12-01T21:38:03.830Z,-2.70
2022-12-01T21:46:26.640Z,-2.77
2022-12-01T21:54:50.581Z,-2.89
2022-12-01T22:03:39.158Z,-3.00
2022-12-01T22:12:09.934Z,-3.07
2022-12-01T22:20:31.436Z,-3.05
2022-12-01T22:28:57.423Z,-3.04
2022-12-01T22:37:22.826Z,-3.05
2022-12-01T22:45:56.664Z,-3.00
2022-12-01T22:54:27.520Z,-3.01
2022-12-01T23:02:51.626Z,-3.10
2022-12-01T23:11:13.198Z,-3.19
2022-12-01T23:19:34.870Z,-3.30
2022-12-01T23:28:06.988Z,-3.33
2022-12-01T23:36:29.246Z,-3.34
2022-12-01T23:44:51.534Z,-3.32
2022-12-01T23:53:24.649Z,-3.32
